Time;durP1;ratioP1;P1;durP2;ratioP2;P2;SDS_P1;SDS_P2;PMS_P1;PMS_P2;Temp;Humidity;BMP_temperature;BMP_pressure;BME280_temperature;BME280_humidity;BME280_pressure;Samples;Min_cycle;Max_cycle;Signal;HPM_P1;HPM_P2
2022/01/09 07:59:17;;;;;;;12.15;3.97;;;;;;;4.33;90.40;99719.00;5320174;27;20350;-75
2022/01/09 08:01:50;;;;;;;7.78;3.58;;;;;;;4.32;91.05;99717.38;5329153;27;20133;-75
2022/01/09 08:04:21;;;;;;;9.32;3.42;;;;;;;4.34;90.78;99717.06;5327995;27;20055;-75
2022/01/09 08:06:52;;;;;;;8.85;2.97;;;;;;;4.38;90.56;99723.66;5310762;28;20052;-75
2022/01/09 08:09:24;;;;;;;7.65;2.90;;;;;;;4.33;90.03;99726.41;5324271;27;20046;-75
2022/01/09 08:11:55;;;;;;;9.10;4.35;;;;;;;4.34;90.66;99723.38;5329059;27;20347;-75
2022/01/09 08:14:27;;;;;;;8.52;3.30;;;;;;;4.33;90.88;99729.97;5329552;27;20482;-75
2022/01/09 08:16:59;;;;;;;6.72;2.92;;;;;;;4.28;91.18;99732.72;5309521;28;20012;-75
2022/01/09 08:19:31;;;;;;;6.38;3.33;;;;;;;4.32;91.06;99733.84;5316770;27;20012;-75
2022/01/09 08:22:04;;;;;;;10.70;3.03;;;;;;;4.33;91.03;99746.44;5319353;28;20045;-75
2022/01/09 08:24:36;;;;;;;8.88;3.10;;;;;;;4.39;91.03;99765.66;5334038;28;20106;-75
2022/01/09 08:27:08;;;;;;;8.75;3.33;;;;;;;4.41;90.72;99757.97;5318520;27;20032;-74
2022/01/09 08:29:40;;;;;;;11.50;3.88;;;;;;;4.46;91.04;99763.47;5334405;27;20016;-75
2022/01/09 08:32:13;;;;;;;11.95;4.07;;;;;;;4.48;91.26;99764.03;5302256;28;20037;-75
2022/01/09 08:34:45;;;;;;;18.35;5.50;;;;;;;4.47;91.64;99760.44;5332276;28;20015;-75
2022/01/09 08:37:16;;;;;;;12.38;4.25;;;;;;;4.55;91.27;99761.81;5314654;28;20031;-75
2022/01/09 08:39:47;;;;;;;15.50;4.63;;;;;;;4.56;91.51;99760.72;5332510;27;20095;-75
2022/01/09 08:42:19;;;;;;;11.30;3.65;;;;;;;4.61;91.53;99768.13;5316747;28;20150;-75
2022/01/09 08:44:50;;;;;;;13.32;4.05;;;;;;;4.60;91.92;99775.53;5323266;28;20035;-75
2022/01/09 08:47:24;;;;;;;10.10;4.10;;;;;;;4.62;92.17;99772.50;5331369;27;20387;-74
2022/01/09 08:49:55;;;;;;;9.15;3.63;;;;;;;4.66;92.53;99776.38;5318842;27;20042;-76
2022/01/09 08:52:26;;;;;;;10.07;3.17;;;;;;;4.75;91.96;99781.00;5325649;27;20025;-76
2022/01/09 08:54:58;;;;;;;12.02;3.30;;;;;;;4.65;91.69;99789.25;5315732;27;20062;-76
2022/01/09 08:57:30;;;;;;;9.45;2.85;;;;;;;4.61;91.71;99792.84;5336534;27;20047;-74
2022/01/09 09:00:04;;;;;;;13.00;3.55;;;;;;;4.65;91.53;99804.91;5319338;27;20037;-75
2022/01/09 09:02:35;;;;;;;17.50;5.25;;;;;;;4.68;91.77;99798.84;5327423;27;20084;-74
2022/01/09 09:05:07;;;;;;;15.13;3.63;;;;;;;4.73;91.65;99805.19;5336982;28;20538;-74
2022/01/09 09:07:38;;;;;;;9.88;3.55;;;;;;;4.82;91.93;99812.88;5327570;28;20470;-74
2022/01/09 09:10:10;;;;;;;20.50;5.45;;;;;;;4.77;92.20;99814.50;5318625;27;20024;-74
2022/01/09 09:12:41;;;;;;;18.20;3.55;;;;;;;4.72;92.31;99814.53;5304934;28;20024;-74
2022/01/09 09:15:13;;;;;;;18.13;3.83;;;;;;;4.77;92.80;99817.25;5304998;28;20356;-74
2022/01/09 09:17:44;;;;;;;14.48;3.67;;;;;;;4.78;92.64;99810.69;5305306;28;20111;-74
2022/01/09 09:20:15;;;;;;;12.55;3.53;;;;;;;4.86;92.15;99822.19;5304967;28;20508;-74
2022/01/09 09:22:47;;;;;;;20.00;4.95;;;;;;;4.92;92.33;99829.34;5305453;28;20008;-74
2022/01/09 09:25:19;;;;;;;13.85;4.45;;;;;;;4.94;91.65;99838.13;5305371;28;20054;-74
2022/01/09 09:27:50;;;;;;;8.48;3.22;;;;;;;4.93;91.45;99841.97;5302950;28;20546;-74
2022/01/09 09:30:22;;;;;;;12.25;4.78;;;;;;;4.88;90.90;99836.47;5305826;28;20103;-74
2022/01/09 09:32:53;;;;;;;14.55;4.30;;;;;;;4.85;90.42;99845.28;5305184;28;20020;-74
2022/01/09 09:35:24;;;;;;;15.70;4.72;;;;;;;4.84;90.55;99849.16;5304965;28;20055;-75
2022/01/09 09:37:56;;;;;;;13.27;4.22;;;;;;;4.86;90.83;99857.91;5305127;28;20043;-75
2022/01/09 09:40:27;;;;;;;10.77;3.10;;;;;;;4.92;90.73;99854.06;5304307;28;20459;-75
2022/01/09 09:42:59;;;;;;;9.43;3.92;;;;;;;4.88;89.88;99855.72;5305313;28;20460;-74
2022/01/09 09:45:33;;;;;;;8.48;4.10;;;;;;;4.94;90.15;99854.63;5300855;28;20587;-75
2022/01/09 09:48:04;;;;;;;16.63;4.53;;;;;;;4.95;90.22;99870.00;5298175;28;20044;-75
2022/01/09 09:50:36;;;;;;;14.55;4.15;;;;;;;5.02;90.79;99887.03;5301657;28;20032;-77
2022/01/09 09:53:07;;;;;;;13.30;4.50;;;;;;;4.99;91.18;99887.59;5304526;28;20038;-74
2022/01/09 09:55:40;;;;;;;13.10;4.65;;;;;;;4.97;91.39;99887.03;5303986;28;20016;-73
2022/01/09 09:58:12;;;;;;;28.30;5.35;;;;;;;4.90;91.05;99891.97;5305666;28;20036;-73
2022/01/09 10:00:51;;;;;;;13.65;4.75;;;;;;;4.97;91.67;99887.03;5304520;28;20118;-74
2022/01/09 10:03:31;;;;;;;12.00;4.05;;;;;;;4.97;91.38;99887.03;5305794;28;20015;-74
2022/01/09 10:06:03;;;;;;;10.73;3.38;;;;;;;5.06;91.08;99892.78;5305308;28;20547;-74
2022/01/09 10:08:39;;;;;;;12.27;3.60;;;;;;;5.10;91.59;99891.16;5318453;28;20054;-74
2022/01/09 10:11:18;;;;;;;12.95;3.83;;;;;;;5.14;91.93;99887.59;5293813;28;20514;-73
2022/01/09 10:14:10;;;;;;;13.93;4.50;;;;;;;5.22;91.77;99892.50;5318419;28;20471;-73
2022/01/09 10:16:42;;;;;;;16.33;5.40;;;;;;;5.33;92.33;99901.56;5318889;28;20020;-75
2022/01/09 10:19:13;;;;;;;12.82;4.38;;;;;;;5.15;90.35;99886.47;5292910;28;20501;-74
2022/01/09 10:21:44;;;;;;;11.57;4.22;;;;;;;5.25;90.54;99887.56;5311698;28;20537;-74
2022/01/09 10:24:16;;;;;;;15.57;4.40;;;;;;;5.27;90.59;99888.94;5313654;28;20028;-73
2022/01/09 10:26:49;;;;;;;12.50;3.92;;;;;;;5.30;88.83;99898.56;5321763;28;20023;-74
2022/01/09 10:29:20;;;;;;;15.68;5.05;;;;;;;5.31;89.64;99898.25;5308706;28;20129;-73
2022/01/09 10:31:51;;;;;;;10.40;3.63;;;;;;;5.31;90.13;99897.44;5318103;28;20095;-74
2022/01/09 10:34:22;;;;;;;16.20;4.32;;;;;;;5.31;90.02;99892.75;5313650;28;20043;-74
2022/01/09 10:36:54;;;;;;;13.50;4.50;;;;;;;5.39;89.81;99896.88;5292899;28;20032;-75
2022/01/09 10:39:25;;;;;;;18.05;4.25;;;;;;;5.40;89.99;99901.28;5320688;28;20100;-74
2022/01/09 10:42:03;;;;;;;11.43;3.75;;;;;;;5.43;89.68;99909.78;5304481;28;20020;-75
2022/01/09 10:44:37;;;;;;;15.82;4.63;;;;;;;5.41;89.44;99911.16;5303622;28;20024;-75
2022/01/09 10:47:14;;;;;;;14.05;4.03;;;;;;;5.39;88.79;99911.47;5300346;28;20039;-75
2022/01/09 10:49:51;;;;;;;10.48;3.67;;;;;;;5.42;89.59;99915.59;5318138;28;20480;-75
2022/01/09 10:52:26;;;;;;;13.85;4.35;;;;;;;5.52;90.07;99914.72;5288796;28;20021;-75
2022/01/09 10:55:03;;;;;;;12.80;3.53;;;;;;;5.49;88.61;99916.09;5319155;28;20467;-75
2022/01/09 10:57:39;;;;;;;20.02;4.55;;;;;;;5.59;89.70;99916.06;5289392;28;20040;-76
2022/01/09 11:00:16;;;;;;;16.00;3.97;;;;;;;5.63;89.27;99924.59;5300761;28;20029;-75
2022/01/09 11:02:47;;;;;;;15.98;4.35;;;;;;;5.65;88.67;99922.41;5304519;28;20107;-75
2022/01/09 11:05:21;;;;;;;17.90;3.75;;;;;;;5.73;88.11;99921.00;5304825;28;20107;-75
2022/01/09 11:07:53;;;;;;;11.68;4.78;;;;;;;5.78;87.34;99940.25;5306760;28;20498;-78
2022/01/09 11:10:24;;;;;;;13.00;4.13;;;;;;;5.83;87.37;99931.97;5300717;28;20016;-73
2022/01/09 11:12:59;;;;;;;14.02;4.72;;;;;;;5.88;87.08;99929.22;5306157;28;20095;-75
2022/01/09 11:15:35;;;;;;;11.02;4.82;;;;;;;5.82;86.67;99935.81;5303483;28;20024;-74
2022/01/09 11:18:07;;;;;;;12.25;4.90;;;;;;;5.78;86.48;99943.81;5306048;28;20356;-74
2022/01/09 11:20:38;;;;;;;19.90;5.18;;;;;;;5.74;87.10;99937.22;5303560;28;20036;-75
2022/01/09 11:23:11;;;;;;;16.33;5.22;;;;;;;5.75;86.04;99947.13;5306004;28;20027;-75
2022/01/09 11:25:44;;;;;;;13.32;4.28;;;;;;;5.80;86.71;99946.28;5300924;28;20096;-75
2022/01/09 11:28:24;;;;;;;19.40;4.65;;;;;;;5.81;86.34;99947.94;5299680;28;20519;-75
2022/01/09 11:31:27;;;;;;;12.35;4.55;;;;;;;5.80;85.34;99949.88;5307203;28;20054;-75
2022/01/09 11:34:31;;;;;;;13.00;3.60;;;;;;;5.74;86.18;99958.41;5310091;28;20024;-75
2022/01/09 11:37:17;;;;;;;17.10;4.35;;;;;;;5.81;86.57;99956.19;5304884;28;20446;-75
2022/01/09 11:39:49;;;;;;;10.15;4.13;;;;;;;5.77;85.17;99952.34;5318581;28;20029;-75
2022/01/09 11:42:20;;;;;;;11.57;4.28;;;;;;;5.82;85.76;99964.16;5302422;28;20039;-75
2022/01/09 11:44:54;;;;;;;15.40;5.60;;;;;;;5.93;86.52;99961.38;5289569;28;20029;-74
2022/01/09 11:47:26;;;;;;;14.93;5.07;;;;;;;5.95;85.41;99956.44;5305373;28;20027;-75
2022/01/09 11:49:57;;;;;;;11.52;3.85;;;;;;;6.04;85.74;99977.59;5315606;28;20027;-75
2022/01/09 11:52:30;;;;;;;14.40;5.83;;;;;;;6.08;84.57;99970.44;5293814;28;20021;-74
2022/01/09 11:55:05;;;;;;;7.95;3.58;;;;;;;6.09;84.43;99966.56;5304567;28;20825;-75
2022/01/09 11:57:41;;;;;;;11.90;4.00;;;;;;;6.16;83.89;99970.94;5295509;28;20053;-75
2022/01/09 12:00:36;;;;;;;13.05;4.38;;;;;;;6.23;84.58;99985.25;5304691;28;20078;-75
2022/01/09 12:03:26;;;;;;;13.20;4.37;;;;;;;6.33;84.76;99979.69;5318415;28;20094;-74
2022/01/09 12:06:11;;;;;;;13.38;5.40;;;;;;;6.35;83.63;99984.94;5305645;28;20165;-72
2022/01/09 12:09:00;;;;;;;10.98;3.75;;;;;;;6.37;83.07;99989.03;5318897;28;20027;-72
2022/01/09 12:12:02;;;;;;;12.95;4.47;;;;;;;6.34;83.72;99983.25;5294061;28;20024;-71
2022/01/09 12:14:53;;;;;;;18.20;4.20;;;;;;;6.43;83.95;99982.41;5308277;28;20111;-73
2022/01/09 12:17:39;;;;;;;11.27;4.45;;;;;;;6.40;83.75;99980.22;5290092;28;20034;-76
2022/01/09 12:20:14;;;;;;;18.38;4.50;;;;;;;6.44;83.80;99977.69;5314646;28;20080;-76
2022/01/09 12:22:49;;;;;;;12.85;4.00;;;;;;;6.42;83.06;99980.75;5307664;28;20032;-77
2022/01/09 12:25:29;;;;;;;12.32;3.60;;;;;;;6.42;83.87;99983.50;5316008;28;20037;-76
2022/01/09 12:28:15;;;;;;;12.75;4.03;;;;;;;6.39;84.35;99991.50;5302044;28;20039;-77
2022/01/09 12:31:00;;;;;;;18.08;8.55;;;;;;;6.30;84.40;99996.78;5307697;28;20023;-76
2022/01/09 12:33:32;;;;;;;14.93;5.50;;;;;;;6.31;84.06;100007.53;5286907;28;20071;-76
2022/01/09 12:36:14;;;;;;;15.13;5.18;;;;;;;6.30;83.97;100005.03;5302504;28;20487;-76
2022/01/09 12:38:49;;;;;;;12.50;4.13;;;;;;;6.25;83.79;100005.88;5308248;28;20028;-76
2022/01/09 12:41:24;;;;;;;14.73;4.95;;;;;;;6.28;82.93;100016.31;5303801;28;20024;-75
2022/01/09 12:44:01;;;;;;;16.02;4.40;;;;;;;6.19;81.35;100018.03;5300941;28;20378;-75
2022/01/09 12:46:33;;;;;;;14.40;3.80;;;;;;;6.27;81.51;100009.19;5326088;28;20482;-75
2022/01/09 12:49:12;;;;;;;29.75;14.90;;;;;;;6.14;80.05;100015.28;5311650;28;20119;-75
2022/01/09 12:51:50;;;;;;;13.27;4.20;;;;;;;6.01;79.09;100011.22;5314665;28;20474;-75
2022/01/09 12:54:22;;;;;;;45.08;25.48;;;;;;;5.95;78.86;100017.81;5311551;28;20028;-76
2022/01/09 12:56:53;;;;;;;15.10;5.20;;;;;;;5.87;79.43;100015.59;5296410;28;20028;-75
2022/01/09 12:59:29;;;;;;;15.38;4.45;;;;;;;5.89;79.93;100027.97;5322790;28;20024;-75
2022/01/09 13:02:02;;;;;;;13.90;4.10;;;;;;;5.97;80.25;100031.31;5310087;28;20027;-75
2022/01/09 13:04:34;;;;;;;13.05;4.00;;;;;;;5.91;79.44;100038.72;5313322;28;20024;-75
2022/01/09 13:07:16;;;;;;;12.25;4.03;;;;;;;6.07;80.17;100034.03;5324009;28;20020;-75
2022/01/09 13:09:47;;;;;;;14.30;4.70;;;;;;;6.09;80.08;100035.41;5291213;28;20364;-76
2022/01/09 13:12:19;;;;;;;12.80;3.85;;;;;;;6.21;80.14;100034.25;5310772;28;20032;-76
2022/01/09 13:14:51;;;;;;;13.20;4.10;;;;;;;6.27;79.57;100041.41;5310888;28;20403;-77
2022/01/09 13:17:23;;;;;;;20.10;9.43;;;;;;;6.30;78.42;100049.91;5321612;28;20024;-75
2022/01/09 13:19:54;;;;;;;10.05;3.25;;;;;;;6.24;76.99;100055.75;5309834;28;20104;-75
2022/01/09 13:22:25;;;;;;;11.82;4.00;;;;;;;6.26;77.56;100050.75;5322100;28;20494;-74
2022/01/09 13:25:10;;;;;;;11.70;3.75;;;;;;;6.30;77.86;100060.13;5305294;28;20045;-74
2022/01/09 13:27:41;;;;;;;13.52;3.63;;;;;;;6.25;78.13;100076.66;5308568;28;20027;-75
2022/01/09 13:30:15;;;;;;;9.77;3.45;;;;;;;6.26;77.94;100070.03;5316258;28;20028;-74
2022/01/09 13:32:46;;;;;;;17.13;4.07;;;;;;;6.28;78.04;100076.91;5305171;28;20035;-75
2022/01/09 13:35:24;;;;;;;18.05;5.60;;;;;;;6.26;78.99;100070.03;5323252;28;20028;-76
2022/01/09 13:37:57;;;;;;;13.07;3.58;;;;;;;6.13;78.46;100076.13;5315530;28;20062;-76
2022/01/09 13:40:29;;;;;;;13.32;4.28;;;;;;;6.09;79.58;100073.94;5308247;28;20024;-76
2022/01/09 13:43:01;;;;;;;13.63;4.38;;;;;;;6.09;79.31;100073.94;5301921;28;20093;-75
2022/01/09 13:45:35;;;;;;;12.02;4.63;;;;;;;6.08;79.24;100066.78;5305540;28;20027;-77
2022/01/09 13:48:06;;;;;;;15.82;5.10;;;;;;;6.17;79.66;100063.47;5307124;28;20016;-76
2022/01/09 13:50:45;;;;;;;9.98;3.13;;;;;;;6.29;79.60;100064.81;5303409;28;20020;-76
2022/01/09 13:53:16;;;;;;;11.30;4.00;;;;;;;6.31;79.73;100072.78;5305852;28;20055;-77
2022/01/09 13:55:47;;;;;;;12.27;3.72;;;;;;;6.42;79.79;100070.84;5313656;28;20050;-76
2022/01/09 13:58:19;;;;;;;14.48;5.97;;;;;;;6.49;79.80;100071.34;5312936;28;20093;-76
2022/01/09 14:00:51;;;;;;;14.18;5.60;;;;;;;6.65;79.84;100069.38;5300783;28;20028;-76
2022/01/09 14:03:27;;;;;;;7.80;4.22;;;;;;;6.70;80.33;100077.59;5322254;27;20047;-74
2022/01/09 14:05:59;;;;;;;14.52;4.20;;;;;;;6.52;80.11;100082.63;5295618;28;20103;-75
2022/01/09 14:08:35;;;;;;;16.73;5.00;;;;;;;6.49;80.58;100085.09;5297199;28;20379;-76
2022/01/09 14:11:07;;;;;;;15.93;3.95;;;;;;;6.49;80.63;100094.22;5313152;28;20028;-76
2022/01/09 14:13:40;;;;;;;17.70;4.90;;;;;;;6.45;81.00;100098.63;5315478;28;20028;-76
2022/01/09 14:16:13;;;;;;;17.30;6.70;;;;;;;6.41;80.43;100099.47;5298602;28;20051;-76
2022/01/09 14:18:54;;;;;;;10.73;5.40;;;;;;;6.42;80.52;100101.94;5320745;28;20459;-76
2022/01/09 14:21:26;;;;;;;15.43;4.93;;;;;;;6.34;79.87;100104.44;5293885;28;20102;-76
2022/01/09 14:24:06;;;;;;;13.02;5.93;;;;;;;6.28;79.03;100106.38;5317012;28;20012;-76
2022/01/09 14:26:37;;;;;;;21.30;5.50;;;;;;;6.35;79.15;100112.44;5320392;28;20012;-76
2022/01/09 14:29:10;;;;;;;12.13;5.40;;;;;;;6.40;78.12;100115.16;5309315;28;20093;-76
2022/01/09 14:31:41;;;;;;;12.55;4.18;;;;;;;6.39;77.86;100110.78;5319146;28;20016;-76
2022/01/09 14:34:13;;;;;;;12.57;5.47;;;;;;;6.35;78.03;100109.69;5301611;27;20129;-76
2022/01/09 14:36:46;;;;;;;14.68;5.50;;;;;;;6.36;77.54;100118.75;5315227;28;20024;-75
2022/01/09 14:39:17;;;;;;;12.80;4.50;;;;;;;6.23;78.39;100111.91;5309481;28;20099;-73
2022/01/09 14:41:48;;;;;;;15.95;4.80;;;;;;;6.17;78.86;100118.53;5318231;28;20104;-76
2022/01/09 14:44:20;;;;;;;16.42;4.60;;;;;;;6.19;79.14;100127.34;5316933;28;20034;-77
2022/01/09 14:46:51;;;;;;;11.50;4.35;;;;;;;6.19;78.86;100127.34;5300109;27;20016;-75
2022/01/09 14:49:23;;;;;;;8.88;2.95;;;;;;;6.14;76.83;100141.13;5317619;28;20016;-76
2022/01/09 14:51:56;;;;;;;9.38;2.97;;;;;;;5.93;76.15;100152.13;5300149;28;20058;-75
2022/01/09 14:54:27;;;;;;;12.95;5.28;;;;;;;5.99;76.64;100155.72;5311882;28;20024;-77
2022/01/09 14:56:59;;;;;;;14.88;9.20;;;;;;;5.84;75.70;100162.00;5320084;28;20058;-75
2022/01/09 14:59:30;;;;;;;13.48;8.27;;;;;;;5.75;76.04;100161.75;5310852;28;20023;-76
2022/01/09 15:02:02;;;;;;;12.88;6.47;;;;;;;5.72;76.33;100162.28;5315408;28;20024;-76
2022/01/09 15:04:33;;;;;;;13.27;5.15;;;;;;;5.84;76.73;100168.34;5311835;28;20034;-77
2022/01/09 15:07:05;;;;;;;12.38;5.60;;;;;;;5.72;76.15;100175.22;5306206;28;20089;-76
2022/01/09 15:09:36;;;;;;;9.70;3.47;;;;;;;5.77;76.92;100177.97;5305165;28;20023;-76
2022/01/09 15:12:07;;;;;;;13.20;4.50;;;;;;;5.87;77.22;100191.72;5313749;28;20031;-76
2022/01/09 15:14:40;;;;;;;14.13;3.53;;;;;;;5.88;77.14;100190.66;5319703;28;20094;-76
2022/01/09 15:17:11;;;;;;;9.30;3.75;;;;;;;5.93;77.34;100198.06;5308688;27;20106;-76
2022/01/09 15:19:42;;;;;;;12.55;4.43;;;;;;;5.94;77.36;100199.75;5317939;28;20103;-77
2022/01/09 15:22:14;;;;;;;13.15;4.30;;;;;;;5.94;78.14;100199.75;5316109;28;20051;-77
2022/01/09 15:24:46;;;;;;;13.48;5.80;;;;;;;5.96;78.07;100201.13;5295505;27;20059;-76
2022/01/09 15:27:17;;;;;;;12.30;4.47;;;;;;;5.96;77.87;100205.81;5320633;28;20032;-76
2022/01/09 15:29:48;;;;;;;13.80;4.65;;;;;;;5.92;78.00;100199.16;5313117;28;20027;-78
2022/01/09 15:32:19;;;;;;;15.80;4.78;;;;;;;5.85;78.75;100207.69;5313311;28;20375;-77
2022/01/09 15:34:51;;;;;;;14.60;3.78;;;;;;;5.88;79.04;100204.41;5321142;28;20035;-76
2022/01/09 15:37:22;;;;;;;9.70;3.90;;;;;;;5.87;78.44;100211.00;5308723;28;20486;-77
2022/01/09 15:39:53;;;;;;;11.93;4.40;;;;;;;5.88;78.78;100215.41;5315973;28;20471;-77
2022/01/09 15:42:25;;;;;;;13.38;4.20;;;;;;;5.76;78.94;100209.34;5299179;28;20016;-77
2022/01/09 15:44:56;;;;;;;8.90;3.70;;;;;;;5.81;79.00;100220.34;5317851;28;20028;-76
2022/01/09 15:47:28;;;;;;;13.02;4.97;;;;;;;5.85;79.05;100221.44;5300180;28;20023;-76
2022/01/09 15:50:00;;;;;;;9.35;3.85;;;;;;;5.79;78.98;100233.56;5307202;28;20115;-77
2022/01/09 15:52:31;;;;;;;10.93;4.90;;;;;;;5.76;79.38;100226.66;5318502;28;20157;-71
2022/01/09 15:55:03;;;;;;;11.15;4.75;;;;;;;5.78;79.15;100237.41;5306280;28;20024;-74
2022/01/09 15:57:37;;;;;;;13.52;5.75;;;;;;;5.79;79.05;100234.38;5315544;28;20396;-76
2022/01/09 16:00:13;;;;;;;12.20;5.00;;;;;;;5.77;78.89;100249.50;5304739;28;20382;-75
2022/01/09 16:02:44;;;;;;;12.80;5.07;;;;;;;5.80;79.35;100244.31;5309027;28;20368;-75
2022/01/09 16:05:15;;;;;;;11.43;4.50;;;;;;;5.77;78.97;100247.56;5320922;28;20145;-76
2022/01/09 16:07:47;;;;;;;13.95;5.22;;;;;;;5.80;78.62;100247.06;5310986;28;20034;-76
2022/01/09 16:10:19;;;;;;;13.75;5.95;;;;;;;5.77;78.58;100247.56;5312613;28;20048;-76
2022/01/09 16:12:51;;;;;;;10.50;4.78;;;;;;;5.64;78.63;100254.44;5320964;28;20428;-74
2022/01/09 16:15:25;;;;;;;15.27;4.95;;;;;;;5.69;78.71;100255.53;5303824;28;20026;-74
2022/01/09 16:17:56;;;;;;;14.23;5.45;;;;;;;5.63;78.59;100257.47;5309531;28;20066;-75
2022/01/09 16:20:27;;;;;;;14.73;5.68;;;;;;;5.65;78.42;100260.78;5314371;28;20051;-76
2022/01/09 16:22:58;;;;;;;10.52;5.10;;;;;;;5.62;78.97;100264.03;5324026;28;20539;-75
2022/01/09 16:25:30;;;;;;;20.83;9.38;;;;;;;5.57;78.92;100262.13;5313664;28;20461;-76
2022/01/09 16:28:01;;;;;;;13.32;6.10;;;;;;;5.53;78.80;100263.75;5318572;28;20475;-75
2022/01/09 16:30:32;;;;;;;10.45;4.90;;;;;;;5.39;78.77;100274.44;5322771;28;20019;-75
2022/01/09 16:33:06;;;;;;;10.93;4.93;;;;;;;5.40;79.40;100270.59;5298265;28;20033;-74
2022/01/09 16:35:38;;;;;;;9.93;4.22;;;;;;;5.42;78.84;100278.59;5321240;28;20027;-73
2022/01/09 16:38:09;;;;;;;10.40;4.88;;;;;;;5.32;78.85;100284.03;5318650;28;20032;-74
2022/01/09 16:40:40;;;;;;;20.90;6.00;;;;;;;5.30;79.08;100280.72;5313282;28;20111;-74
2022/01/09 16:43:12;;;;;;;16.67;6.47;;;;;;;5.29;79.37;100290.91;5323861;28;20089;-74
2022/01/09 16:45:43;;;;;;;11.93;5.65;;;;;;;5.23;79.70;100292.78;5315185;28;20362;-74
2022/01/09 16:48:14;;;;;;;12.40;4.22;;;;;;;5.31;79.30;100301.63;5306963;28;20024;-74
2022/01/09 16:50:48;;;;;;;18.13;12.40;;;;;;;5.38;79.51;100302.19;5299994;28;20028;-74
2022/01/09 16:53:20;;;;;;;12.38;6.13;;;;;;;5.35;79.21;100298.06;5324099;28;20024;-75
2022/01/09 16:55:51;;;;;;;17.55;7.93;;;;;;;5.42;79.27;100308.84;5317112;28;20034;-75
2022/01/09 16:58:22;;;;;;;15.55;6.35;;;;;;;5.38;79.47;100310.47;5314598;28;20048;-74
2022/01/09 17:00:55;;;;;;;17.30;8.10;;;;;;;5.33;79.47;100307.69;5324382;28;20031;-75
2022/01/09 17:03:26;;;;;;;17.15;7.75;;;;;;;5.29;79.45;100314.81;5312138;28;20191;-74
2022/01/09 17:05:58;;;;;;;13.80;7.95;;;;;;;5.17;80.10;100304.84;5311927;28;20123;-75
2022/01/09 17:08:35;;;;;;;12.73;7.20;;;;;;;5.18;80.45;100313.94;5314724;28;20471;-74
2022/01/09 17:11:10;;;;;;;17.50;7.22;;;;;;;5.16;80.12;100322.44;5310721;28;20069;-75
2022/01/09 17:13:42;;;;;;;18.03;11.23;;;;;;;5.13;80.06;100322.16;5321930;28;20027;-76
2022/01/09 17:16:14;;;;;;;19.67;9.02;;;;;;;5.16;80.54;100330.69;5318893;28;20285;-74
2022/01/09 17:18:45;;;;;;;12.25;7.30;;;;;;;5.15;79.88;100329.03;5324287;28;20024;-75
2022/01/09 17:21:17;;;;;;;14.95;6.95;;;;;;;5.08;79.32;100339.44;5312652;27;20020;-73
2022/01/09 17:23:48;;;;;;;14.77;7.20;;;;;;;5.05;79.83;100345.47;5311697;28;20020;-74
2022/01/09 17:26:19;;;;;;;12.60;5.53;;;;;;;5.10;79.64;100347.41;5313609;28;20043;-74
2022/01/09 17:28:53;;;;;;;11.90;4.68;;;;;;;5.01;79.87;100355.31;5323751;28;20016;-75
